Lihue, HI

5:12 PM HST on March 28, 2015 (GMT -1000)
Lihue | | Change Station
CLOSE
Current Station
Personal Weather Station
Location: Lihue, HI
Elevation: 342 ft
Nearby Weather Stations

Elev 342 ft 21.97 °N, 159.40 °W | Updated 39 minutes ago

Clear
Clear
77.2 °F
Feels Like 79 °F
N
4.5
Wind Variable Wind from East
Gusts 8.7 mph

Today
High -- | Low -- °F
--% Chance of Precip.
Yesterday
High -- | Low -- °F
Precip. -- in
6:34 AM 6:51 PM
Waxing Gibbous, 67% visible
Pressure 30.14 in
Visibility 10.0 miles
Clouds Clear
Heat Index 79 °F
Dew Point 69 °F
Humidity 76%
Rainfall -999.00 in
Snow Depth Not available.
UV 2 out of 12
Pollen Not available.
Air Quality Not available.
Flu Activity Not available.
METAR PHLI 290253Z 08004KT 10SM CLR 26/18 A3014 RMK AO2 SLP204 T02560178 55005 $

More Conditions Fewer Conditions

Pressure 30.14 in
Visibility 10.0 miles
Clouds Clear
Heat Index 79 °F
Dew Point 69 °F
Humidity 76%
Rainfall -999.00 in
Snow Depth Not available.
UV 2 out of 12
Pollen Not available.
Air Quality Not available.
Flu Activity Not available.
METAR PHLI 290253Z 08004KT 10SM CLR 26/18 A3014 RMK AO2 SLP204 T02560178 55005 $

More Conditions Fewer Conditions

10-Day Weather Forecast

Almanac

Astronomy

Mar. 28, 2015 Rise Set
Actual Time
Civil Twilight
Nautical Twilight
Astronomical Twilight
Moon
Length of Visible Light
Length of Day
Tomorrow will be .
, % of the Moon is Illuminated

Today's Extremes

State Highs State Lows

Community

WunderPhotos

Upload Photos

1,809,174 photos uploaded!

WunderBlogs® & News

Nearby

Air Quality

  Air Quality AQ Index Pollutant
Not available.

Snow Depth

Station Depth Elevation

Earthquake Activity

City Distance Mag. Time & Date
Minimum magnitude displayed is 2.5.

Coastal Water Temperatures

Place Temperature

Stations

Nearby Weather Stations

Station Location Temp. Windchill Dew Point Humidity Wind Precip. Elev Updated Type